Pagina principale
METAR-TAF:

METAR-TAF

Aeroporti :

Aeroporto di Southend

Londra-Southend, Inghilterra

latitudine: 51-34N, longitudine: 000-42E, altezza: 15 m

Osservazione

Il bollettino è stato emesso 42 minuti fa, alle 06:20 UTC
Vento 10 kt da nord-est
Temperature 13°C
Umidità 82%
Pressione 1030 hPa
Visibilità 10 km o più
Nuvoloso ad un'altezza di 1500 ft

METAR: EGMC 270620Z 04010KT 9999 BKN015 13/10 Q1030

Ora: 08:02 (07:02 UTC)

Previsione

Il bollettino è stato emesso 1 ora e 56 minuti fa, alle 05:06 UTC
Previsione valida dal 27 alle 06 UTC al 27 alle 15 UTC
Vento 10 kt da nord-est
Visibilità 10 km o più
Nuvoloso ad un'altezza di 1600 ft
Probabilità 40% :
Temporaneamente
dal 27 alle 06 UTC al 27 alle 09 UTC
Nuvoloso ad un'altezza di 1400 ft
Probabilità 30% :
Temporaneamente
dal 27 alle 06 UTC al 27 alle 15 UTC
Vento 15 kt da nord-est con raffiche fino a 25 kt

TAF: EGMC 270506Z 2706/2715 05010KT 9999 BKN016 PROB40 TEMPO 2706/2709 BKN014 PROB30 TEMPO 2706/2715 05015G25KT

Osservazioni e previsioni meteorologiche di più di 4000 aeroporti (messaggi METAR e TAF).

Le stazioni disponibili sono rappresentate dai dischi gialli e rossi sulla carta.

Puntare il mouse per vedere il nome della stazione.

Clicca sopra per visualizzare le osservazioni e previsioni meteorologiche.

Per cambiare la mappa : fare clic sui pulsanti verdi con una croce nera per ingrandire, il pulsante verde con un trattino per diminuire, o sulla freccia verde per le mappe adiacenti.


METAR-TAF: